Willow Lake, South Dakota
Current Conditions -  °F | °C
As of 11:53 AM on Saturday 25 Oct 2014 (Local Time) from KATY Reporting Station
Clear Clear  
Wind Chill: 59°   Ceiling: Unl
Heat Index: 59°   Visibility: 10mi
Dew Point: 33°   Wind: 10mph
Humidity: 38%   Direction: 320°NW
Pressure: 30.15"   Gusts: NA
Location:  44.63°N, 97.64°W
Report Text: KATY 251653Z AUTO 32009KT 10SM CLR 15/01 A3015 RMK AO2 SLP210 T01500006 $
Loading
Personal Weather Stations






























Interactive Weather Map
Tropical Storm Tracking
New forecast layout! Learn more

10-Day Weather Forecast

Advertisements
Track Severe Weather on mobile